Time;durP1;ratioP1;P1;durP2;ratioP2;P2;SDS_P1;SDS_P2;PMS_P1;PMS_P2;Temp;Humidity;BMP_temperature;BMP_pressure;BME280_temperature;BME280_humidity;BME280_pressure;Samples;Min_cycle;Max_cycle;Signal;HPM_P1;HPM_P2
2021/09/21 00:00:35;;;;;;;11.85;7.43;;;;;;;12.39;100.00;95070.81;10364061;28;20037;-66
2021/09/21 00:05:37;;;;;;;12.88;8.15;;;;;;;12.21;100.00;95066.84;10332421;28;20062;-70
2021/09/21 00:10:37;;;;;;;14.73;8.30;;;;;;;12.12;100.00;95072.00;10363894;28;20029;-67
2021/09/21 00:15:38;;;;;;;15.13;8.77;;;;;;;11.95;100.00;95065.03;10363856;28;20060;-68
2021/09/21 00:20:38;;;;;;;16.92;8.10;;;;;;;11.86;100.00;95060.44;10365483;28;20071;-67
2021/09/21 00:25:39;;;;;;;15.23;9.30;;;;;;;11.79;100.00;95064.25;10364053;28;20028;-65
2021/09/21 00:30:46;;;;;;;16.00;8.95;;;;;;;11.74;100.00;95063.44;10363881;28;20030;-70
2021/09/21 00:35:51;;;;;;;16.00;9.13;;;;;;;11.51;100.00;95070.19;10347875;28;20128;-65
2021/09/21 00:40:51;;;;;;;17.10;9.20;;;;;;;11.62;100.00;95074.47;10363241;28;20077;-70
2021/09/21 00:45:52;;;;;;;20.38;10.68;;;;;;;11.57;100.00;95055.66;10369457;28;20030;-70
2021/09/21 00:50:53;;;;;;;18.75;10.52;;;;;;;11.58;100.00;95062.63;10370905;28;20126;-67
2021/09/21 00:55:53;;;;;;;20.02;11.43;;;;;;;11.69;100.00;95072.31;10370433;28;20128;-70
2021/09/21 01:00:54;;;;;;;18.83;10.20;;;;;;;11.59;100.00;95073.13;10370304;28;20431;-72
2021/09/21 01:05:54;;;;;;;15.98;9.15;;;;;;;11.60;100.00;95071.28;10370330;28;20037;-72
2021/09/21 01:10:55;;;;;;;16.20;9.63;;;;;;;11.66;100.00;95066.69;10370062;28;20485;-67
2021/09/21 01:15:55;;;;;;;17.98;10.02;;;;;;;11.53;100.00;95071.53;10369993;28;20335;-73
2021/09/21 01:21:07;;;;;;;14.77;8.80;;;;;;;11.55;100.00;95072.06;10337284;28;20026;-66
2021/09/21 01:26:08;;;;;;;18.27;10.15;;;;;;;11.56;100.00;95067.50;10353043;28;20272;-67
2021/09/21 01:31:08;;;;;;;17.40;10.53;;;;;;;11.67;100.00;95069.09;10370299;28;20037;-70
2021/09/21 01:36:08;;;;;;;17.90;9.45;;;;;;;11.67;100.00;95062.91;10368716;28;20805;-68
2021/09/21 01:41:09;;;;;;;16.40;9.70;;;;;;;11.58;100.00;95068.84;10368608;28;20084;-64
2021/09/21 01:46:11;;;;;;;17.00;9.20;;;;;;;11.63;100.00;95068.03;10352345;28;20277;-65
2021/09/21 01:51:18;;;;;;;17.75;9.30;;;;;;;11.62;100.00;95066.41;10353107;28;20169;-70
2021/09/21 02:01:37;;;;;;;;;;;;;;;11.69;100.00;95083.09;10369739;28;20026;-68
2021/09/21 02:06:41;;;;;;;18.48;8.85;;;;;;;11.58;100.00;95082.31;10368150;28;19909;-66
2021/09/21 02:11:44;;;;;;;15.48;9.27;;;;;;;11.43;100.00;95090.41;10367870;28;20026;-68
2021/09/21 02:16:46;;;;;;;16.85;9.23;;;;;;;11.38;100.00;95085.00;10368021;28;20049;-68
2021/09/21 02:21:46;;;;;;;15.30;8.57;;;;;;;11.19;100.00;95082.03;10367274;28;20509;-65
2021/09/21 02:26:47;;;;;;;16.38;9.52;;;;;;;11.17;100.00;95092.25;10367100;28;20032;-67
2021/09/21 02:31:47;;;;;;;18.97;9.27;;;;;;;11.20;100.00;95089.81;10366865;28;20033;-70
2021/09/21 02:36:47;;;;;;;16.77;9.68;;;;;;;11.05;100.00;95079.88;10366643;28;20285;-68
2021/09/21 02:41:48;;;;;;;15.57;8.43;;;;;;;11.09;100.00;95094.41;10366556;28;20172;-65
2021/09/21 02:46:50;;;;;;;17.33;8.37;;;;;;;11.09;100.00;95097.09;10366099;28;20911;-71
2021/09/21 02:51:51;;;;;;;15.32;9.00;;;;;;;11.08;100.00;95098.16;10366066;28;20802;-72
2021/09/21 02:56:51;;;;;;;14.03;8.07;;;;;;;11.23;100.00;95097.38;10366068;28;20046;-67
2021/09/21 03:01:52;;;;;;;17.00;9.80;;;;;;;11.14;100.00;95103.56;10349608;28;20627;-66
2021/09/21 03:07:01;;;;;;;16.42;8.40;;;;;;;11.25;100.00;95113.25;10366868;28;20272;-71
2021/09/21 03:17:20;;;;;;;17.95;8.88;;;;;;;11.11;100.00;95135.28;10366820;28;20034;-74
2021/09/21 03:22:22;;;;;;;14.55;8.65;;;;;;;11.05;100.00;95149.81;10364245;28;20033;-68
2021/09/21 03:27:23;;;;;;;14.93;8.43;;;;;;;11.09;100.00;95152.75;10364815;28;20033;-69
2021/09/21 03:32:25;;;;;;;19.70;8.63;;;;;;;11.07;100.00;95158.41;10347882;28;20033;-67
2021/09/21 03:37:25;;;;;;;13.32;6.95;;;;;;;10.97;100.00;95160.25;10348009;28;20037;-62
2021/09/21 03:42:26;;;;;;;10.90;7.28;;;;;;;10.93;100.00;95171.56;10365825;28;20415;-67
2021/09/21 03:47:26;;;;;;;14.25;7.63;;;;;;;10.93;100.00;95173.44;10365138;28;20124;-67
2021/09/21 03:52:27;;;;;;;13.50;8.05;;;;;;;10.83;100.00;95181.47;10364012;28;20036;-71
2021/09/21 03:57:27;;;;;;;10.47;6.60;;;;;;;10.85;100.00;95182.03;10363787;28;20077;-67
2021/09/21 04:02:28;;;;;;;11.45;6.38;;;;;;;10.88;100.00;95173.41;10363355;28;20287;-73
2021/09/21 04:07:28;;;;;;;15.63;7.13;;;;;;;10.76;100.00;95187.91;10363881;28;20088;-72
2021/09/21 04:12:28;;;;;;;9.00;6.10;;;;;;;10.76;100.00;95187.91;10343601;28;20037;-72
2021/09/21 04:17:29;;;;;;;9.93;5.63;;;;;;;10.85;100.00;95176.63;10323983;28;20033;-71
2021/09/21 04:22:29;;;;;;;11.50;6.32;;;;;;;10.98;100.00;95173.47;10330933;28;20285;-67
2021/09/21 04:27:30;;;;;;;13.20;6.95;;;;;;;11.02;100.00;95174.53;10314675;28;20037;-67
2021/09/21 04:32:30;;;;;;;14.63;7.55;;;;;;;11.14;100.00;95166.22;10330685;28;20053;-68
2021/09/21 04:37:31;;;;;;;13.20;6.55;;;;;;;10.91;100.00;95178.25;10330143;28;20129;-66
2021/09/21 04:42:31;;;;;;;9.10;6.00;;;;;;;10.77;100.00;95181.47;10329392;28;20415;-66
2021/09/21 04:47:32;;;;;;;12.40;7.22;;;;;;;10.73;100.00;95175.00;10329585;28;20272;-68
2021/09/21 04:52:33;;;;;;;13.18;6.55;;;;;;;10.69;100.00;95178.44;10330241;28;20529;-72
2021/09/21 04:57:34;;;;;;;11.55;6.70;;;;;;;10.64;100.00;95181.13;10328892;28;20058;-68
2021/09/21 05:02:36;;;;;;;10.80;6.82;;;;;;;10.70;100.00;95180.06;10329188;28;20505;-67
2021/09/21 05:07:36;;;;;;;10.13;6.60;;;;;;;10.75;100.00;95188.97;10329789;28;20037;-67
2021/09/21 05:12:37;;;;;;;15.00;7.47;;;;;;;10.84;100.00;95200.03;10329125;28;20155;-70
2021/09/21 05:17:38;;;;;;;12.30;7.65;;;;;;;10.97;100.00;95212.19;10328564;28;20022;-67
2021/09/21 05:22:39;;;;;;;9.80;7.18;;;;;;;11.13;100.00;95212.22;10328693;28;20034;-67
2021/09/21 05:27:39;;;;;;;11.32;6.80;;;;;;;11.43;100.00;95206.91;10328004;28;20030;-65
2021/09/21 05:32:40;;;;;;;8.70;5.43;;;;;;;11.60;100.00;95220.13;10327966;28;20036;-72
2021/09/21 05:37:41;;;;;;;11.23;6.95;;;;;;;11.85;100.00;95217.75;10327773;28;20697;-73
2021/09/21 05:42:41;;;;;;;17.48;8.52;;;;;;;12.11;100.00;95223.94;10327892;28;20033;-69
2021/09/21 05:47:42;;;;;;;8.83;6.50;;;;;;;12.47;100.00;95232.81;10311314;28;20033;-65
2021/09/21 05:52:45;;;;;;;10.85;6.90;;;;;;;12.74;100.00;95247.84;10327523;28;20273;-72
2021/09/21 05:57:45;;;;;;;12.60;7.75;;;;;;;12.94;100.00;95235.38;10327377;28;20046;-73
2021/09/21 06:02:46;;;;;;;8.73;5.75;;;;;;;12.73;100.00;95246.22;10327573;28;20504;-67
2021/09/21 06:07:48;;;;;;;13.63;7.40;;;;;;;12.75;100.00;95249.44;10310524;28;20034;-70
2021/09/21 06:12:49;;;;;;;10.57;6.97;;;;;;;12.79;100.00;95255.91;10326986;28;20168;-68
2021/09/21 06:17:50;;;;;;;13.73;7.57;;;;;;;12.59;100.00;95261.38;10309800;28;20038;-68
2021/09/21 06:22:51;;;;;;;12.10;6.90;;;;;;;12.62;100.00;95266.22;10326214;28;20052;-71
2021/09/21 06:27:51;;;;;;;9.25;7.00;;;;;;;12.78;100.00;95273.19;10326117;28;20546;-68
2021/09/21 06:32:52;;;;;;;16.10;7.57;;;;;;;12.91;100.00;95274.50;10326253;28;20113;-74
2021/09/21 06:37:52;;;;;;;13.98;7.25;;;;;;;12.97;100.00;95280.69;10326707;28;20663;-71
2021/09/21 06:42:53;;;;;;;14.40;7.82;;;;;;;13.08;100.00;95278.75;10326178;28;20113;-67
2021/09/21 06:47:53;;;;;;;14.90;6.60;;;;;;;12.86;100.00;95282.59;10326503;28;20494;-73
2021/09/21 06:52:54;;;;;;;14.75;7.95;;;;;;;13.01;100.00;95291.75;10325213;28;20026;-75
2021/09/21 06:57:56;;;;;;;13.88;8.23;;;;;;;13.08;100.00;95284.97;10324824;28;20050;-72
2021/09/21 07:02:58;;;;;;;15.90;8.40;;;;;;;13.21;100.00;95304.34;10324927;28;20019;-72
2021/09/21 07:07:58;;;;;;;12.48;7.47;;;;;;;13.13;100.00;95311.13;10324077;28;20431;-71
2021/09/21 07:12:59;;;;;;;12.05;7.85;;;;;;;13.20;100.00;95303.56;10324806;28;20045;-72
2021/09/21 07:18:00;;;;;;;14.23;8.85;;;;;;;13.25;100.00;95300.81;10324235;28;20028;-71
2021/09/21 07:23:00;;;;;;;20.80;9.93;;;;;;;13.24;100.00;95312.72;10323707;28;20413;-68
2021/09/21 07:28:02;;;;;;;16.67;8.50;;;;;;;13.05;100.00;95317.09;10323887;28;20022;-67
2021/09/21 07:33:04;;;;;;;12.15;8.38;;;;;;;12.51;100.00;95321.22;10323893;28;20026;-67
2021/09/21 07:38:05;;;;;;;16.40;8.88;;;;;;;12.54;100.00;95332.25;10323426;28;20480;-67
2021/09/21 07:43:06;;;;;;;14.07;8.70;;;;;;;12.70;100.00;95329.56;10323649;28;20034;-66
2021/09/21 07:48:09;;;;;;;12.77;8.20;;;;;;;12.97;100.00;95334.66;10325156;28;20074;-68
2021/09/21 07:53:10;;;;;;;17.02;10.38;;;;;;;13.04;100.00;95345.94;10322747;28;20058;-72
2021/09/21 07:58:10;;;;;;;12.30;8.25;;;;;;;13.04;100.00;95351.34;10322969;28;20137;-70
2021/09/21 08:03:11;;;;;;;16.00;9.67;;;;;;;13.69;100.00;95347.94;10323231;28;20084;-76
2021/09/21 08:08:11;;;;;;;10.67;7.57;;;;;;;14.08;100.00;95355.28;10322679;28;20269;-73
2021/09/21 08:13:12;;;;;;;14.75;8.13;;;;;;;14.36;100.00;95367.25;10324376;28;20030;-68
2021/09/21 08:18:12;;;;;;;13.23;8.02;;;;;;;15.09;100.00;95362.06;10306462;28;20030;-70
2021/09/21 08:23:13;;;;;;;16.83;7.60;;;;;;;14.74;100.00;95374.03;10306607;28;20023;-68
2021/09/21 08:28:13;;;;;;;15.45;8.70;;;;;;;15.01;100.00;95379.75;10324122;28;20277;-66
2021/09/21 08:33:14;;;;;;;16.10;8.60;;;;;;;15.34;100.00;95379.94;10322447;28;20467;-67
2021/09/21 08:38:14;;;;;;;11.55;7.80;;;;;;;15.19;100.00;95367.38;10323499;28;20043;-69
2021/09/21 08:43:15;;;;;;;13.15;9.38;;;;;;;14.85;100.00;95352.00;10323410;28;20033;-69
2021/09/21 08:48:15;;;;;;;10.52;7.45;;;;;;;15.52;100.00;95351.31;10323446;28;20552;-73
2021/09/21 08:53:15;;;;;;;10.20;6.80;;;;;;;14.89;100.00;95349.56;10322106;28;20826;-75
2021/09/21 08:58:22;;;;;;;12.85;8.25;;;;;;;15.40;100.00;95345.47;10321581;28;20355;-75
2021/09/21 09:03:27;;;;;;;9.80;7.00;;;;;;;16.03;100.00;95346.34;10322910;28;20419;-68
2021/09/21 09:08:33;;;;;;;8.35;5.72;;;;;;;16.84;100.00;95350.81;10333063;28;20041;-72
2021/09/21 09:13:33;;;;;;;9.80;6.60;;;;;;;17.73;96.74;95351.63;10326033;28;20516;-68
2021/09/21 09:18:33;;;;;;;10.23;5.50;;;;;;;19.36;87.20;95353.56;10289420;28;20038;-68
2021/09/21 09:23:34;;;;;;;7.07;5.30;;;;;;;20.61;69.57;95341.47;10288557;28;20289;-72
2021/09/21 09:28:36;;;;;;;8.43;5.13;;;;;;;21.42;63.57;95341.81;10320493;28;20269;-72
2021/09/21 09:33:38;;;;;;;10.10;5.10;;;;;;;22.11;60.54;95336.31;10327911;28;20041;-68
2021/09/21 09:38:41;;;;;;;10.38;5.05;;;;;;;22.99;56.01;95341.91;10327653;28;20030;-70
2021/09/21 09:43:43;;;;;;;6.60;4.93;;;;;;;23.19;53.77;95351.22;10306225;28;20069;-67
2021/09/21 09:48:44;;;;;;;6.72;5.05;;;;;;;23.22;51.08;95336.88;10308451;28;20058;-67
2021/09/21 09:53:48;;;;;;;6.03;4.87;;;;;;;23.93;49.84;95340.38;10304171;28;20476;-68
2021/09/21 09:58:48;;;;;;;7.30;4.18;;;;;;;26.23;44.17;95331.22;10301352;28;20345;-70
2021/09/21 10:03:49;;;;;;;7.03;3.85;;;;;;;28.41;40.07;95335.63;10305248;28;20018;-72
2021/09/21 10:08:52;;;;;;;5.90;3.05;;;;;;;30.57;33.29;95322.28;10302750;28;20014;-69
2021/09/21 10:13:53;;;;;;;3.20;2.63;;;;;;;31.89;32.52;95320.25;10304212;28;20030;-71
2021/09/21 10:18:55;;;;;;;10.80;2.50;;;;;;;32.34;30.09;95312.28;10305336;28;20026;-73
2021/09/21 10:23:59;;;;;;;5.40;2.78;;;;;;;31.85;30.47;95315.47;10299119;28;20034;-73
2021/09/21 10:28:59;;;;;;;4.03;2.85;;;;;;;32.98;29.08;95310.50;10306212;28;20014;-71
2021/09/21 10:34:11;;;;;;;3.33;2.90;;;;;;;32.53;29.69;95314.59;10304471;28;20030;-72
2021/09/21 10:39:14;;;;;;;5.38;2.50;;;;;;;32.31;28.66;95301.97;10314793;28;20288;-68
2021/09/21 10:44:15;;;;;;;8.65;2.72;;;;;;;32.09;29.68;95301.97;10280224;28;20447;-69
2021/09/21 10:49:29;;;;;;;5.85;2.50;;;;;;;32.02;28.86;95310.31;10302508;28;20023;-68
2021/09/21 10:54:38;;;;;;;4.25;2.15;;;;;;;33.15;28.22;95304.03;10304536;28;20084;-69
2021/09/21 10:59:42;;;;;;;4.07;1.80;;;;;;;33.82;26.84;95292.84;10302961;28;20050;-69
2021/09/21 11:04:43;;;;;;;3.65;1.98;;;;;;;32.00;28.64;95291.25;10305864;28;20023;-67
2021/09/21 11:09:53;;;;;;;5.30;2.20;;;;;;;31.69;29.96;95288.09;10304025;28;20058;-68
2021/09/21 11:14:59;;;;;;;2.55;1.50;;;;;;;31.43;29.17;95285.69;10280572;28;20118;-67
2021/09/21 11:19:59;;;;;;;2.28;1.45;;;;;;;30.24;30.22;95285.22;10301071;28;20030;-66
2021/09/21 11:25:10;;;;;;;5.67;2.83;;;;;;;26.41;36.52;95274.53;10306841;28;20499;-68
2021/09/21 11:30:17;;;;;;;3.75;2.47;;;;;;;24.08;41.16;95274.91;10301680;28;20368;-68
2021/09/21 11:35:18;;;;;;;6.68;2.58;;;;;;;22.57;45.96;95278.97;10322707;28;20045;-75
2021/09/21 11:40:29;;;;;;;2.50;2.28;;;;;;;21.37;48.77;95281.03;10287364;28;20101;-68
2021/09/21 11:45:29;;;;;;;5.63;3.10;;;;;;;20.87;54.34;95277.81;10285349;28;20139;-68
2021/09/21 11:50:33;;;;;;;3.58;2.75;;;;;;;20.22;55.42;95285.91;10296383;28;20492;-69
2021/09/21 11:55:36;;;;;;;3.50;2.30;;;;;;;18.87;59.21;95290.81;10359827;28;20498;-68
2021/09/21 12:00:43;;;;;;;3.42;2.90;;;;;;;18.53;69.86;95280.47;10358361;28;20036;-73
2021/09/21 12:05:46;;;;;;;5.20;2.97;;;;;;;18.84;72.03;95266.91;10360847;28;20064;-69
2021/09/21 12:10:52;;;;;;;3.97;2.92;;;;;;;18.89;68.89;95272.25;10404029;28;20107;-67
2021/09/21 12:15:59;;;;;;;2.65;2.10;;;;;;;17.97;79.55;95258.94;10404979;28;20029;-67
2021/09/21 12:21:08;;;;;;;7.72;3.97;;;;;;;18.36;74.18;95259.41;10404704;28;20503;-68
2021/09/21 12:26:10;;;;;;;2.85;2.47;;;;;;;18.50;74.10;95251.97;10403495;28;20013;-69
2021/09/21 12:31:17;;;;;;;6.45;2.85;;;;;;;18.54;70.79;95239.34;10387345;28;20025;-70
2021/09/21 12:36:26;;;;;;;2.97;2.30;;;;;;;18.72;63.99;95225.84;10403274;28;20175;-76
2021/09/21 12:41:30;;;;;;;5.93;2.53;;;;;;;18.77;65.33;95217.53;10409027;28;20083;-68
2021/09/21 12:46:30;;;;;;;4.13;2.63;;;;;;;18.71;68.83;95214.16;10411372;28;20067;-70
2021/09/21 12:51:34;;;;;;;4.15;2.15;;;;;;;18.73;63.74;95202.94;10395211;28;20049;-66
2021/09/21 12:56:35;;;;;;;7.60;1.80;;;;;;;18.56;68.18;95211.84;10393963;28;20111;-73
2021/09/21 13:01:35;;;;;;;2.90;1.38;;;;;;;18.20;66.49;95210.81;10377766;28;20138;-69
2021/09/21 13:06:36;;;;;;;3.57;1.23;;;;;;;17.86;70.35;95201.25;10352707;28;20032;-69
2021/09/21 13:11:37;;;;;;;3.38;2.05;;;;;;;17.90;73.33;95204.16;10369175;28;20280;-68
2021/09/21 13:16:39;;;;;;;2.40;1.92;;;;;;;18.01;66.56;95205.53;10352375;28;20026;-69
2021/09/21 13:21:39;;;;;;;4.10;3.00;;;;;;;18.00;68.50;95201.25;10352581;28;20109;-70
2021/09/21 13:26:39;;;;;;;5.13;2.10;;;;;;;18.00;66.41;95197.69;10368233;28;20410;-68
2021/09/21 13:31:40;;;;;;;2.72;1.60;;;;;;;17.96;67.23;95204.88;10364574;28;20363;-68
2021/09/21 13:36:40;;;;;;;3.47;1.90;;;;;;;17.82;67.94;95199.44;10364719;28;20125;-69
2021/09/21 13:41:41;;;;;;;4.03;1.63;;;;;;;17.66;75.79;95202.53;10355534;28;20812;-69
2021/09/21 13:46:41;;;;;;;7.63;2.10;;;;;;;17.72;69.21;95208.66;10326672;28;20277;-70
2021/09/21 13:51:42;;;;;;;6.40;2.30;;;;;;;17.68;68.58;95194.88;10354753;28;20034;-65
2021/09/21 13:56:42;;;;;;;2.42;1.60;;;;;;;17.29;74.61;95203.59;10383003;28;20305;-65
2021/09/21 14:01:42;;;;;;;5.75;2.25;;;;;;;17.28;73.52;95202.81;10347953;28;20113;-69
2021/09/21 14:06:43;;;;;;;4.50;2.00;;;;;;;17.25;74.14;95196.06;10339907;28;20025;-67
2021/09/21 14:11:43;;;;;;;2.72;2.10;;;;;;;17.23;73.19;95209.16;10345016;28;20408;-66
2021/09/21 14:16:44;;;;;;;4.33;2.60;;;;;;;17.14;75.25;95205.53;10346299;28;20021;-67
2021/09/21 14:21:45;;;;;;;4.30;3.10;;;;;;;16.93;78.72;95213.31;10364688;28;20292;-67
2021/09/21 14:26:47;;;;;;;6.05;2.08;;;;;;;16.82;77.11;95218.09;10365607;28;20511;-68
2021/09/21 14:31:47;;;;;;;3.20;2.13;;;;;;;16.51;76.61;95229.50;10364829;28;20100;-68
2021/09/21 14:36:48;;;;;;;6.13;2.33;;;;;;;16.52;82.44;95223.00;10358052;28;20459;-68
2021/09/21 14:41:49;;;;;;;5.78;2.20;;;;;;;16.33;83.68;95231.19;10349284;28;20439;-68
2021/09/21 14:46:50;;;;;;;2.38;2.13;;;;;;;16.22;84.26;95229.75;10365221;28;20025;-72
2021/09/21 14:51:50;;;;;;;4.45;2.30;;;;;;;16.17;85.63;95229.81;10353291;28;20065;-75
2021/09/21 14:56:51;;;;;;;3.63;2.10;;;;;;;16.00;82.78;95228.44;10364139;28;20137;-68
2021/09/21 15:01:52;;;;;;;4.18;2.42;;;;;;;16.08;85.63;95237.03;10357873;28;20392;-70
2021/09/21 15:06:53;;;;;;;3.67;2.35;;;;;;;16.10;85.83;95254.59;10363854;28;20101;-68
2021/09/21 15:11:53;;;;;;;6.88;2.17;;;;;;;15.85;87.21;95255.78;10368118;28;20018;-67
2021/09/21 15:16:54;;;;;;;5.77;2.67;;;;;;;15.81;91.84;95261.00;10364320;28;20025;-68
2021/09/21 15:21:54;;;;;;;7.43;3.03;;;;;;;15.86;91.78;95260.91;10365737;28;20272;-70
2021/09/21 15:26:55;;;;;;;6.28;3.20;;;;;;;15.66;92.63;95262.00;10365593;28;20026;-68
2021/09/21 15:31:55;;;;;;;3.05;2.50;;;;;;;15.51;93.83;95271.13;10364104;28;20034;-67
2021/09/21 15:36:56;;;;;;;4.82;2.60;;;;;;;14.92;96.47;95280.53;10363691;28;20495;-67
2021/09/21 15:41:57;;;;;;;7.40;3.08;;;;;;;14.79;99.17;95290.09;10364049;28;20076;-68
2021/09/21 15:46:58;;;;;;;5.32;3.08;;;;;;;14.95;98.74;95290.75;10364039;28;20510;-68
2021/09/21 15:51:58;;;;;;;5.65;3.45;;;;;;;15.07;99.66;95304.72;10363573;28;20060;-71
2021/09/21 15:57:02;;;;;;;4.38;3.33;;;;;;;15.04;100.00;95302.56;10363286;28;20056;-67
2021/09/21 16:02:03;;;;;;;6.78;2.95;;;;;;;15.02;98.67;95310.16;10363239;28;20084;-67
2021/09/21 16:07:05;;;;;;;8.63;2.85;;;;;;;14.95;98.73;95317.81;10363046;28;20018;-67
2021/09/21 16:12:06;;;;;;;11.27;3.03;;;;;;;14.93;100.00;95314.59;10347881;28;20048;-67
2021/09/21 16:17:07;;;;;;;18.30;3.90;;;;;;;14.95;100.00;95317.81;10355195;28;20030;-68
2021/09/21 16:22:09;;;;;;;4.28;3.13;;;;;;;14.91;100.00;95319.50;10371709;28;20092;-69
2021/09/21 16:27:10;;;;;;;8.15;3.60;;;;;;;14.35;100.00;95308.84;10371411;28;20112;-68
2021/09/21 16:32:11;;;;;;;5.78;3.72;;;;;;;14.24;100.00;95307.31;10370850;28;20034;-67
2021/09/21 16:37:11;;;;;;;6.30;4.05;;;;;;;14.41;100.00;95315.03;10364572;28;20038;-66
2021/09/21 16:42:12;;;;;;;11.43;4.75;;;;;;;14.26;100.00;95310.56;10368349;28;20029;-66
2021/09/21 16:47:12;;;;;;;8.18;3.13;;;;;;;14.41;100.00;95311.53;10369487;28;20026;-68
2021/09/21 16:52:13;;;;;;;5.38;3.55;;;;;;;14.24;100.00;95317.34;10364493;28;20551;-65
2021/09/21 16:57:13;;;;;;;5.80;3.90;;;;;;;14.21;100.00;95310.59;10369115;28;20053;-66
2021/09/21 17:02:22;;;;;;;14.82;4.50;;;;;;;13.88;100.00;95312.97;10371502;28;20048;-69
2021/09/21 17:07:23;;;;;;;5.90;4.07;;;;;;;13.78;100.00;95308.44;10363875;28;20025;-71
2021/09/21 17:12:23;;;;;;;5.72;3.35;;;;;;;13.83;100.00;95308.41;10338572;28;20033;-71
2021/09/21 17:17:24;;;;;;;8.82;4.03;;;;;;;13.95;100.00;95308.06;10341194;28;20034;-72
2021/09/21 17:22:24;;;;;;;6.47;3.58;;;;;;;14.00;100.00;95318.03;10355188;28;20632;-71
2021/09/21 17:27:25;;;;;;;16.08;5.55;;;;;;;14.07;100.00;95321.22;10369086;28;20575;-67
2021/09/21 17:32:25;;;;;;;8.65;4.25;;;;;;;14.19;100.00;95331.66;10330350;28;20064;-67
2021/09/21 17:37:26;;;;;;;4.20;3.00;;;;;;;14.26;100.00;95313.25;10351978;28;20415;-72
2021/09/21 17:42:33;;;;;;;11.38;3.78;;;;;;;14.34;100.00;95301.03;10355788;28;20030;-70
2021/09/21 17:47:33;;;;;;;6.97;3.70;;;;;;;14.30;100.00;95335.13;10345057;28;20057;-69
2021/09/21 17:52:34;;;;;;;6.75;3.28;;;;;;;13.84;100.00;95341.63;10348111;28;20110;-67
2021/09/21 17:57:35;;;;;;;5.40;3.80;;;;;;;13.62;100.00;95337.41;10340621;28;20053;-70
2021/09/21 18:02:35;;;;;;;5.20;3.78;;;;;;;13.63;100.00;95344.44;10346572;28;20061;-73
2021/09/21 18:07:36;;;;;;;8.95;4.80;;;;;;;13.51;100.00;95343.97;10343200;28;20037;-67
2021/09/21 18:12:37;;;;;;;7.55;4.05;;;;;;;13.47;100.00;95342.91;10343355;28;20093;-72
2021/09/21 18:17:43;;;;;;;5.15;3.80;;;;;;;13.40;100.00;95324.28;10345533;28;20384;-68
2021/09/21 18:23:25;;;;;;;11.00;4.97;;;;;;;13.27;100.00;95333.75;10343558;28;20866;-68
2021/09/21 18:28:27;;;;;;;7.40;4.78;;;;;;;13.16;100.00;95351.06;10352554;28;20503;-66
2021/09/21 18:33:28;;;;;;;7.07;5.13;;;;;;;13.05;100.00;95360.28;10365587;28;20038;-66
2021/09/21 18:38:38;;;;;;;8.68;5.18;;;;;;;13.06;100.00;95376.19;10365148;28;20555;-67
2021/09/21 18:43:39;;;;;;;9.07;5.88;;;;;;;13.01;100.00;95370.78;10348439;28;20407;-67
2021/09/21 18:48:40;;;;;;;8.85;5.75;;;;;;;12.91;100.00;95374.31;10337534;28;20022;-66
2021/09/21 18:53:41;;;;;;;8.98;6.05;;;;;;;12.89;100.00;95383.75;10348691;28;20030;-67
2021/09/21 18:58:43;;;;;;;10.90;6.60;;;;;;;12.74;100.00;95382.69;10345549;28;20507;-67
2021/09/21 19:03:43;;;;;;;9.73;6.32;;;;;;;12.83;100.00;95372.16;10372137;28;20034;-68
2021/09/21 19:08:43;;;;;;;12.52;7.57;;;;;;;12.84;100.00;95376.47;10374928;28;20456;-71
2021/09/21 19:13:44;;;;;;;15.88;9.63;;;;;;;12.75;100.00;95373.50;10371121;28;20026;-67
2021/09/21 19:18:45;;;;;;;17.35;9.07;;;;;;;12.64;100.00;95377.28;10359318;28;20038;-67
2021/09/21 19:23:46;;;;;;;17.33;9.82;;;;;;;12.65;100.00;95381.59;10351455;28;20454;-66
2021/09/21 19:28:46;;;;;;;13.82;8.88;;;;;;;12.83;100.00;95374.84;10364358;28;20037;-69
2021/09/21 19:33:47;;;;;;;16.05;9.65;;;;;;;12.99;100.00;95381.84;10363756;28;20034;-66
2021/09/21 19:38:47;;;;;;;21.02;10.95;;;;;;;12.95;100.00;95390.78;10364448;28;20068;-67
2021/09/21 19:43:50;;;;;;;17.88;10.40;;;;;;;12.85;100.00;95379.97;10354403;28;20117;-74
2021/09/21 19:48:50;;;;;;;20.77;11.82;;;;;;;12.72;100.00;95379.44;10347255;28;20045;-67
2021/09/21 19:53:50;;;;;;;22.45;11.57;;;;;;;12.99;100.00;95383.72;10376781;28;20030;-68
2021/09/21 19:58:51;;;;;;;20.35;11.57;;;;;;;13.15;100.00;95384.53;10354517;28;20056;-67
2021/09/21 20:03:53;;;;;;;22.67;11.52;;;;;;;12.89;100.00;95381.84;10342701;28;20159;-71
2021/09/21 20:08:54;;;;;;;22.98;11.57;;;;;;;12.72;100.00;95392.94;10363129;28;20025;-67
2021/09/21 20:13:55;;;;;;;16.23;10.10;;;;;;;12.71;100.00;95393.19;10362658;28;20045;-67
2021/09/21 20:18:56;;;;;;;19.02;11.45;;;;;;;12.61;100.00;95389.44;10362698;28;20033;-75
2021/09/21 20:23:57;;;;;;;22.67;12.57;;;;;;;12.70;100.00;95407.75;10363916;28;20546;-71
2021/09/21 20:28:59;;;;;;;22.80;13.57;;;;;;;12.72;100.00;95394.81;10322742;28;20026;-68
2021/09/21 20:34:00;;;;;;;21.40;13.32;;;;;;;12.74;100.00;95398.88;10306311;28;20138;-67
2021/09/21 20:39:00;;;;;;;18.25;11.63;;;;;;;12.82;100.00;95398.34;10322867;28;20031;-71
2021/09/21 20:44:01;;;;;;;23.17;12.65;;;;;;;12.79;100.00;95398.84;10322198;28;20018;-67
2021/09/21 20:49:01;;;;;;;20.90;11.85;;;;;;;12.62;100.00;95380.25;10305849;28;20117;-72
2021/09/21 20:54:02;;;;;;;20.73;12.23;;;;;;;12.65;100.00;95395.09;10357806;28;20029;-66
2021/09/21 20:59:03;;;;;;;23.08;12.25;;;;;;;12.64;100.00;95397.00;10362870;28;20050;-67
2021/09/21 21:04:03;;;;;;;23.20;12.73;;;;;;;12.47;100.00;95394.56;10320241;28;20442;-75
2021/09/21 21:09:04;;;;;;;23.60;13.80;;;;;;;12.45;100.00;95391.31;10329111;28;20026;-67
2021/09/21 21:14:04;;;;;;;22.00;12.02;;;;;;;12.48;100.00;95390.78;10346069;28;20085;-67
2021/09/21 21:19:05;;;;;;;24.08;13.77;;;;;;;12.28;100.00;95388.88;10352423;28;20038;-70
2021/09/21 21:24:07;;;;;;;25.70;13.13;;;;;;;12.38;100.00;95384.59;10369298;28;20037;-70
2021/09/21 21:29:07;;;;;;;20.30;12.48;;;;;;;12.18;100.00;95386.19;10368895;28;20037;-70
2021/09/21 21:34:08;;;;;;;20.83;12.05;;;;;;;12.09;100.00;95393.16;10368869;28;20030;-74
2021/09/21 21:39:08;;;;;;;24.60;14.05;;;;;;;12.11;100.00;95402.59;10368411;28;20041;-74
2021/09/21 21:44:09;;;;;;;22.10;12.73;;;;;;;12.12;100.00;95398.81;10370436;28;20034;-70
2021/09/21 21:49:10;;;;;;;26.27;13.68;;;;;;;12.04;100.00;95382.34;10369351;28;20026;-68
2021/09/21 21:54:11;;;;;;;22.38;13.05;;;;;;;11.92;100.00;95374.50;10368988;28;20534;-72
2021/09/21 21:59:11;;;;;;;23.42;13.57;;;;;;;11.98;100.00;95378.84;10367652;28;20056;-71
2021/09/21 22:04:12;;;;;;;19.13;13.20;;;;;;;11.75;100.00;95375.53;10367696;28;20393;-67
2021/09/21 22:09:12;;;;;;;21.17;12.60;;;;;;;11.84;100.00;95375.00;10366995;28;20534;-67
2021/09/21 22:14:13;;;;;;;23.47;12.77;;;;;;;11.93;100.00;95373.41;10367498;28;20021;-70
2021/09/21 22:19:13;;;;;;;22.70;12.60;;;;;;;11.85;100.00;95371.25;10366906;28;20293;-71
2021/09/21 22:24:14;;;;;;;26.83;12.97;;;;;;;11.74;100.00;95378.47;10368151;28;20507;-76
2021/09/21 22:29:14;;;;;;;22.40;12.35;;;;;;;11.72;100.00;95375.22;10366882;28;20265;-68
2021/09/21 22:34:15;;;;;;;18.05;11.60;;;;;;;11.89;100.00;95385.78;10366928;28;20125;-72
2021/09/21 22:39:17;;;;;;;21.08;12.40;;;;;;;11.90;100.00;95382.84;10366958;28;20042;-68
2021/09/21 22:44:17;;;;;;;21.20;11.13;;;;;;;11.77;100.00;95384.13;10367052;28;20121;-69
2021/09/21 22:49:18;;;;;;;22.25;11.32;;;;;;;11.79;100.00;95378.47;10366619;28;20030;-73
2021/09/21 22:54:18;;;;;;;21.90;12.10;;;;;;;11.71;100.00;95387.91;10367212;28;20030;-68
2021/09/21 22:59:19;;;;;;;23.17;12.57;;;;;;;11.84;100.00;95391.97;10365580;28;20297;-65
2021/09/21 23:04:19;;;;;;;22.27;12.85;;;;;;;11.92;100.00;95387.97;10366106;28;20392;-67
2021/09/21 23:09:20;;;;;;;21.27;11.87;;;;;;;11.84;100.00;95388.47;10365725;28;20029;-67